sensor_id;sensor_type;location;lat;lon;timestamp;temperature;humidity
42979;DHT22;28616;44.746;19.678;2023-09-19T00:00:37;23.30;99.50
42979;DHT22;28616;44.746;19.678;2023-09-19T00:03:03;23.30;99.60
42979;DHT22;28616;44.746;19.678;2023-09-19T00:05:33;23.30;99.40
42979;DHT22;28616;44.746;19.678;2023-09-19T00:08:00;23.30;99.60
42979;DHT22;28616;44.746;19.678;2023-09-19T00:10:27;23.30;99.40
42979;DHT22;28616;44.746;19.678;2023-09-19T00:12:57;23.20;99.20
42979;DHT22;28616;44.746;19.678;2023-09-19T00:15:27;23.20;99.20
42979;DHT22;28616;44.746;19.678;2023-09-19T00:17:56;23.20;99.20
42979;DHT22;28616;44.746;19.678;2023-09-19T00:20:22;23.20;98.90
42979;DHT22;28616;44.746;19.678;2023-09-19T00:22:51;23.20;99.10
42979;DHT22;28616;44.746;19.678;2023-09-19T00:25:17;23.20;98.90
42979;DHT22;28616;44.746;19.678;2023-09-19T00:27:44;23.20;99.00
42979;DHT22;28616;44.746;19.678;2023-09-19T00:30:11;23.20;98.70
42979;DHT22;28616;44.746;19.678;2023-09-19T00:32:46;23.20;98.60
42979;DHT22;28616;44.746;19.678;2023-09-19T00:35:15;23.20;98.60
42979;DHT22;28616;44.746;19.678;2023-09-19T00:37:42;23.20;98.50
42979;DHT22;28616;44.746;19.678;2023-09-19T00:40:09;23.20;98.70
42979;DHT22;28616;44.746;19.678;2023-09-19T00:42:43;23.20;98.70
42979;DHT22;28616;44.746;19.678;2023-09-19T00:45:10;23.20;98.90
42979;DHT22;28616;44.746;19.678;2023-09-19T00:49:59;23.20;99.00
42979;DHT22;28616;44.746;19.678;2023-09-19T00:52:25;23.20;99.40
42979;DHT22;28616;44.746;19.678;2023-09-19T00:54:52;23.20;99.90
42979;DHT22;28616;44.746;19.678;2023-09-19T00:57:18;23.10;99.90
42979;DHT22;28616;44.746;19.678;2023-09-19T00:59:45;23.10;99.90
42979;DHT22;28616;44.746;19.678;2023-09-19T01:02:15;23.00;99.90
42979;DHT22;28616;44.746;19.678;2023-09-19T01:04:41;23.00;99.90
42979;DHT22;28616;44.746;19.678;2023-09-19T01:07:08;23.00;99.90
42979;DHT22;28616;44.746;19.678;2023-09-19T01:09:35;23.00;99.90
42979;DHT22;28616;44.746;19.678;2023-09-19T01:12:03;22.90;99.90
42979;DHT22;28616;44.746;19.678;2023-09-19T01:17:29;23.00;99.90
42979;DHT22;28616;44.746;19.678;2023-09-19T01:20:11;23.00;99.90
42979;DHT22;28616;44.746;19.678;2023-09-19T01:26:07;22.90;99.90
42979;DHT22;28616;44.746;19.678;2023-09-19T01:28:43;22.90;99.90
42979;DHT22;28616;44.746;19.678;2023-09-19T01:31:13;22.90;99.90
42979;DHT22;28616;44.746;19.678;2023-09-19T01:34:00;22.90;99.90
42979;DHT22;28616;44.746;19.678;2023-09-19T01:36:34;22.90;99.90
42979;DHT22;28616;44.746;19.678;2023-09-19T01:39:10;22.90;99.90
42979;DHT22;28616;44.746;19.678;2023-09-19T01:44:19;22.80;99.90
42979;DHT22;28616;44.746;19.678;2023-09-19T01:46:47;22.80;99.90
42979;DHT22;28616;44.746;19.678;2023-09-19T01:49:27;22.70;99.90
42979;DHT22;28616;44.746;19.678;2023-09-19T01:52:15;22.70;99.90
42979;DHT22;28616;44.746;19.678;2023-09-19T01:54:56;22.70;99.90
42979;DHT22;28616;44.746;19.678;2023-09-19T01:57:34;22.70;99.90
42979;DHT22;28616;44.746;19.678;2023-09-19T02:00:05;22.70;99.90
42979;DHT22;28616;44.746;19.678;2023-09-19T02:02:52;22.70;99.90
42979;DHT22;28616;44.746;19.678;2023-09-19T02:05:25;22.70;99.90
42979;DHT22;28616;44.746;19.678;2023-09-19T02:07:54;22.70;99.90
42979;DHT22;28616;44.746;19.678;2023-09-19T02:10:21;22.60;99.90
42979;DHT22;28616;44.746;19.678;2023-09-19T02:12:48;22.70;99.90
42979;DHT22;28616;44.746;19.678;2023-09-19T02:15:14;22.60;99.90
42979;DHT22;28616;44.746;19.678;2023-09-19T02:17:42;22.60;99.90
42979;DHT22;28616;44.746;19.678;2023-09-19T02:20:08;22.60;99.90
42979;DHT22;28616;44.746;19.678;2023-09-19T02:22:36;22.60;99.90
42979;DHT22;28616;44.746;19.678;2023-09-19T02:25:02;22.60;99.90
42979;DHT22;28616;44.746;19.678;2023-09-19T02:27:30;22.60;99.90
42979;DHT22;28616;44.746;19.678;2023-09-19T02:29:56;22.60;99.90
42979;DHT22;28616;44.746;19.678;2023-09-19T02:32:23;22.50;99.90
42979;DHT22;28616;44.746;19.678;2023-09-19T02:34:48;22.50;99.90
42979;DHT22;28616;44.746;19.678;2023-09-19T02:37:17;22.60;99.90
42979;DHT22;28616;44.746;19.678;2023-09-19T02:39:44;22.60;99.90
42979;DHT22;28616;44.746;19.678;2023-09-19T02:42:10;22.50;99.90
42979;DHT22;28616;44.746;19.678;2023-09-19T02:44:36;22.50;99.90
42979;DHT22;28616;44.746;19.678;2023-09-19T02:47:03;22.50;99.90
42979;DHT22;28616;44.746;19.678;2023-09-19T02:49:29;22.50;99.90
42979;DHT22;28616;44.746;19.678;2023-09-19T02:51:55;22.50;99.90
42979;DHT22;28616;44.746;19.678;2023-09-19T02:54:21;22.60;99.90
42979;DHT22;28616;44.746;19.678;2023-09-19T02:56:47;22.60;99.90
42979;DHT22;28616;44.746;19.678;2023-09-19T02:59:13;22.60;99.90
42979;DHT22;28616;44.746;19.678;2023-09-19T03:01:40;22.60;99.90
42979;DHT22;28616;44.746;19.678;2023-09-19T03:04:08;22.50;99.90
42979;DHT22;28616;44.746;19.678;2023-09-19T03:06:36;22.50;99.90
42979;DHT22;28616;44.746;19.678;2023-09-19T03:09:04;22.50;99.90
42979;DHT22;28616;44.746;19.678;2023-09-19T03:11:39;22.50;99.90
42979;DHT22;28616;44.746;19.678;2023-09-19T03:14:05;22.50;99.90
42979;DHT22;28616;44.746;19.678;2023-09-19T03:16:31;22.50;99.90
42979;DHT22;28616;44.746;19.678;2023-09-19T03:18:58;22.60;99.90
42979;DHT22;28616;44.746;19.678;2023-09-19T03:21:25;22.60;99.90
42979;DHT22;28616;44.746;19.678;2023-09-19T03:23:51;22.60;99.90
42979;DHT22;28616;44.746;19.678;2023-09-19T03:26:17;22.60;99.90
42979;DHT22;28616;44.746;19.678;2023-09-19T03:28:43;22.60;99.90
42979;DHT22;28616;44.746;19.678;2023-09-19T03:31:11;22.50;99.90
42979;DHT22;28616;44.746;19.678;2023-09-19T03:33:37;22.60;99.90
42979;DHT22;28616;44.746;19.678;2023-09-19T03:36:03;22.60;99.90
42979;DHT22;28616;44.746;19.678;2023-09-19T03:38:33;22.60;99.90
42979;DHT22;28616;44.746;19.678;2023-09-19T03:41:02;22.60;99.90
42979;DHT22;28616;44.746;19.678;2023-09-19T03:43:28;22.60;99.90
42979;DHT22;28616;44.746;19.678;2023-09-19T03:45:54;22.60;99.90
42979;DHT22;28616;44.746;19.678;2023-09-19T03:48:20;22.60;99.90
42979;DHT22;28616;44.746;19.678;2023-09-19T03:50:47;22.50;99.90
42979;DHT22;28616;44.746;19.678;2023-09-19T03:53:13;22.40;99.90
42979;DHT22;28616;44.746;19.678;2023-09-19T03:55:39;22.40;99.90
42979;DHT22;28616;44.746;19.678;2023-09-19T04:25:07;22.20;99.90
42979;DHT22;28616;44.746;19.678;2023-09-19T04:27:33;22.40;99.90
42979;DHT22;28616;44.746;19.678;2023-09-19T04:30:00;22.30;99.90
42979;DHT22;28616;44.746;19.678;2023-09-19T04:32:29;22.30;99.90
42979;DHT22;28616;44.746;19.678;2023-09-19T04:34:55;22.30;99.90
42979;DHT22;28616;44.746;19.678;2023-09-19T04:37:25;22.20;99.90
42979;DHT22;28616;44.746;19.678;2023-09-19T04:39:51;22.20;99.90
42979;DHT22;28616;44.746;19.678;2023-09-19T04:42:17;22.20;99.90
42979;DHT22;28616;44.746;19.678;2023-09-19T04:44:43;22.20;99.90
42979;DHT22;28616;44.746;19.678;2023-09-19T04:47:09;22.20;99.90
42979;DHT22;28616;44.746;19.678;2023-09-19T04:49:34;22.20;99.90
42979;DHT22;28616;44.746;19.678;2023-09-19T04:52:00;22.20;99.90
42979;DHT22;28616;44.746;19.678;2023-09-19T04:54:33;22.20;99.90
42979;DHT22;28616;44.746;19.678;2023-09-19T04:56:59;22.20;99.90
42979;DHT22;28616;44.746;19.678;2023-09-19T04:59:29;22.20;99.90
42979;DHT22;28616;44.746;19.678;2023-09-19T05:01:54;22.20;99.90
42979;DHT22;28616;44.746;19.678;2023-09-19T05:04:21;22.20;99.90
42979;DHT22;28616;44.746;19.678;2023-09-19T05:06:47;22.30;99.90
42979;DHT22;28616;44.746;19.678;2023-09-19T06:08:15;22.50;99.90
42979;DHT22;28616;44.746;19.678;2023-09-19T06:10:41;22.60;99.90
42979;DHT22;28616;44.746;19.678;2023-09-19T06:13:06;22.60;99.90
42979;DHT22;28616;44.746;19.678;2023-09-19T06:15:35;22.60;99.90
42979;DHT22;28616;44.746;19.678;2023-09-19T06:18:01;22.60;99.90
42979;DHT22;28616;44.746;19.678;2023-09-19T06:20:28;22.70;99.90
42979;DHT22;28616;44.746;19.678;2023-09-19T06:22:54;22.80;99.90
42979;DHT22;28616;44.746;19.678;2023-09-19T06:27:49;22.90;99.90
42979;DHT22;28616;44.746;19.678;2023-09-19T18:18:14;23.60;78.30
42979;DHT22;28616;44.746;19.678;2023-09-19T18:20:48;23.50;79.00
42979;DHT22;28616;44.746;19.678;2023-09-19T18:23:14;23.50;79.00
42979;DHT22;28616;44.746;19.678;2023-09-19T18:25:49;23.50;79.40
42979;DHT22;28616;44.746;19.678;2023-09-19T18:28:52;23.40;80.20
42979;DHT22;28616;44.746;19.678;2023-09-19T18:31:45;23.40;80.20
42979;DHT22;28616;44.746;19.678;2023-09-19T18:37:44;23.30;81.40
42979;DHT22;28616;44.746;19.678;2023-09-19T18:40:14;23.30;81.50
42979;DHT22;28616;44.746;19.678;2023-09-19T18:42:40;23.20;82.60
42979;DHT22;28616;44.746;19.678;2023-09-19T18:45:09;23.20;83.20
42979;DHT22;28616;44.746;19.678;2023-09-19T18:47:38;23.20;83.50
42979;DHT22;28616;44.746;19.678;2023-09-19T18:50:04;23.10;83.60
42979;DHT22;28616;44.746;19.678;2023-09-19T18:55:36;23.10;84.00
42979;DHT22;28616;44.746;19.678;2023-09-19T18:58:02;23.00;84.20
42979;DHT22;28616;44.746;19.678;2023-09-19T19:00:28;22.90;84.20
42979;DHT22;28616;44.746;19.678;2023-09-19T19:02:55;22.90;85.30
42979;DHT22;28616;44.746;19.678;2023-09-19T19:08:28;22.70;89.20
42979;DHT22;28616;44.746;19.678;2023-09-19T19:17:36;22.30;92.00
42979;DHT22;28616;44.746;19.678;2023-09-19T19:20:03;22.20;93.00
42979;DHT22;28616;44.746;19.678;2023-09-19T19:22:43;22.20;94.10
42979;DHT22;28616;44.746;19.678;2023-09-19T19:25:11;22.10;95.10
42979;DHT22;28616;44.746;19.678;2023-09-19T19:27:39;22.10;95.50
42979;DHT22;28616;44.746;19.678;2023-09-19T19:30:08;22.10;97.30
42979;DHT22;28616;44.746;19.678;2023-09-19T19:32:37;22.00;98.30
42979;DHT22;28616;44.746;19.678;2023-09-19T19:35:03;21.90;99.30
42979;DHT22;28616;44.746;19.678;2023-09-19T19:37:33;21.90;99.90
42979;DHT22;28616;44.746;19.678;2023-09-19T19:40:03;21.90;99.90
42979;DHT22;28616;44.746;19.678;2023-09-19T19:42:35;21.90;99.90
42979;DHT22;28616;44.746;19.678;2023-09-19T19:45:04;21.90;99.90
42979;DHT22;28616;44.746;19.678;2023-09-19T19:47:39;21.80;99.90
42979;DHT22;28616;44.746;19.678;2023-09-19T21:19:55;20.50;99.90
42979;DHT22;28616;44.746;19.678;2023-09-19T21:22:22;20.50;99.90
42979;DHT22;28616;44.746;19.678;2023-09-19T21:24:49;20.40;99.90
42979;DHT22;28616;44.746;19.678;2023-09-19T21:27:16;20.50;99.90
42979;DHT22;28616;44.746;19.678;2023-09-19T21:29:42;20.50;99.90
42979;DHT22;28616;44.746;19.678;2023-09-19T21:32:08;20.50;99.90
42979;DHT22;28616;44.746;19.678;2023-09-19T21:34:34;20.50;99.90
42979;DHT22;28616;44.746;19.678;2023-09-19T21:37:01;20.50;99.90
42979;DHT22;28616;44.746;19.678;2023-09-19T21:39:28;20.50;99.90
42979;DHT22;28616;44.746;19.678;2023-09-19T21:41:54;20.50;99.90
42979;DHT22;28616;44.746;19.678;2023-09-19T21:44:19;20.50;99.90
42979;DHT22;28616;44.746;19.678;2023-09-19T21:46:45;20.50;99.90
42979;DHT22;28616;44.746;19.678;2023-09-19T21:49:11;20.50;99.90
42979;DHT22;28616;44.746;19.678;2023-09-19T21:51:40;20.40;99.90
42979;DHT22;28616;44.746;19.678;2023-09-19T21:54:05;20.40;99.90
42979;DHT22;28616;44.746;19.678;2023-09-19T21:56:31;20.40;99.90
42979;DHT22;28616;44.746;19.678;2023-09-19T21:58:57;20.40;99.90
42979;DHT22;28616;44.746;19.678;2023-09-19T22:01:23;20.40;99.90
42979;DHT22;28616;44.746;19.678;2023-09-19T22:03:53;20.30;99.90
42979;DHT22;28616;44.746;19.678;2023-09-19T22:06:20;20.30;99.90
42979;DHT22;28616;44.746;19.678;2023-09-19T22:08:49;20.30;99.90
42979;DHT22;28616;44.746;19.678;2023-09-19T22:11:19;20.30;99.90
42979;DHT22;28616;44.746;19.678;2023-09-19T22:13:46;20.40;99.90
42979;DHT22;28616;44.746;19.678;2023-09-19T22:16:15;20.40;99.90
42979;DHT22;28616;44.746;19.678;2023-09-19T22:18:42;20.40;99.90
42979;DHT22;28616;44.746;19.678;2023-09-19T22:21:11;20.40;99.90
42979;DHT22;28616;44.746;19.678;2023-09-19T22:23:40;20.40;99.90
42979;DHT22;28616;44.746;19.678;2023-09-19T22:26:12;20.40;99.90
42979;DHT22;28616;44.746;19.678;2023-09-19T22:28:41;20.30;99.90
42979;DHT22;28616;44.746;19.678;2023-09-19T22:31:15;20.40;99.90
42979;DHT22;28616;44.746;19.678;2023-09-19T22:33:48;20.40;99.90
42979;DHT22;28616;44.746;19.678;2023-09-19T22:36:19;20.50;99.90
42979;DHT22;28616;44.746;19.678;2023-09-19T22:39:17;20.50;99.90
42979;DHT22;28616;44.746;19.678;2023-09-19T22:41:50;20.50;99.90
42979;DHT22;28616;44.746;19.678;2023-09-19T22:44:16;20.50;99.90
42979;DHT22;28616;44.746;19.678;2023-09-19T22:46:42;20.50;99.90
42979;DHT22;28616;44.746;19.678;2023-09-19T22:49:09;20.50;99.90
42979;DHT22;28616;44.746;19.678;2023-09-19T22:51:43;20.40;99.90
42979;DHT22;28616;44.746;19.678;2023-09-19T22:54:15;20.40;99.90
42979;DHT22;28616;44.746;19.678;2023-09-19T22:56:42;20.40;99.90
42979;DHT22;28616;44.746;19.678;2023-09-19T22:59:08;20.40;99.90
42979;DHT22;28616;44.746;19.678;2023-09-19T23:01:34;20.40;99.90
42979;DHT22;28616;44.746;19.678;2023-09-19T23:04:00;20.40;99.90
42979;DHT22;28616;44.746;19.678;2023-09-19T23:06:38;20.40;99.90
42979;DHT22;28616;44.746;19.678;2023-09-19T23:09:05;20.40;99.90
42979;DHT22;28616;44.746;19.678;2023-09-19T23:11:34;20.40;99.90
42979;DHT22;28616;44.746;19.678;2023-09-19T23:14:00;20.30;99.90
42979;DHT22;28616;44.746;19.678;2023-09-19T23:16:32;20.40;99.90
42979;DHT22;28616;44.746;19.678;2023-09-19T23:19:03;20.30;99.90
42979;DHT22;28616;44.746;19.678;2023-09-19T23:21:38;20.30;99.90
42979;DHT22;28616;44.746;19.678;2023-09-19T23:24:09;20.40;99.90
42979;DHT22;28616;44.746;19.678;2023-09-19T23:26:35;20.40;99.90
42979;DHT22;28616;44.746;19.678;2023-09-19T23:29:02;20.40;99.90
42979;DHT22;28616;44.746;19.678;2023-09-19T23:31:28;20.40;99.90
42979;DHT22;28616;44.746;19.678;2023-09-19T23:33:54;20.40;99.90
42979;DHT22;28616;44.746;19.678;2023-09-19T23:36:21;20.40;99.90
42979;DHT22;28616;44.746;19.678;2023-09-19T23:38:46;20.40;99.90
42979;DHT22;28616;44.746;19.678;2023-09-19T23:41:12;20.40;99.90
42979;DHT22;28616;44.746;19.678;2023-09-19T23:43:46;20.40;99.90
42979;DHT22;28616;44.746;19.678;2023-09-19T23:46:18;20.40;99.90
42979;DHT22;28616;44.746;19.678;2023-09-19T23:48:44;20.30;99.90
42979;DHT22;28616;44.746;19.678;2023-09-19T23:51:09;20.30;99.90
42979;DHT22;28616;44.746;19.678;2023-09-19T23:53:36;20.20;99.90
42979;DHT22;28616;44.746;19.678;2023-09-19T23:56:03;20.20;99.90
42979;DHT22;28616;44.746;19.678;2023-09-19T23:58:31;20.10;99.90
